sensor_id;sensor_type;location;lat;lon;timestamp;pressure;altitude;pressure_sealevel;temperature;humidity
29197;BME280;62796;42.654;23.316;2022-12-07T00:01:37;94545.84;;;9.06;57.52
29197;BME280;62796;42.654;23.316;2022-12-07T00:04:08;94550.31;;;9.04;58.15
29197;BME280;62796;42.654;23.316;2022-12-07T00:06:46;94545.66;;;9.10;57.53
29197;BME280;62796;42.654;23.316;2022-12-07T00:09:14;94543.56;;;9.05;57.71
29197;BME280;62796;42.654;23.316;2022-12-07T00:11:41;94544.88;;;9.09;57.65
29197;BME280;62796;42.654;23.316;2022-12-07T00:14:11;94541.84;;;9.07;57.79
29197;BME280;62796;42.654;23.316;2022-12-07T00:16:37;94531.44;;;9.02;58.14
29197;BME280;62796;42.654;23.316;2022-12-07T00:19:03;94540.41;;;8.97;58.32
29197;BME280;62796;42.654;23.316;2022-12-07T00:21:34;94535.16;;;8.99;57.92
29197;BME280;62796;42.654;23.316;2022-12-07T00:24:00;94531.53;;;8.93;58.32
29197;BME280;62796;42.654;23.316;2022-12-07T00:26:37;94536.09;;;8.96;58.17
29197;BME280;62796;42.654;23.316;2022-12-07T00:29:06;94542.97;;;9.01;58.12
29197;BME280;62796;42.654;23.316;2022-12-07T00:31:34;94547.06;;;9.05;57.96
29197;BME280;62796;42.654;23.316;2022-12-07T00:34:01;94535.56;;;9.07;57.71
29197;BME280;62796;42.654;23.316;2022-12-07T00:36:27;94543.47;;;9.14;57.42
29197;BME280;62796;42.654;23.316;2022-12-07T00:38:53;94550.03;;;9.16;57.39
29197;BME280;62796;42.654;23.316;2022-12-07T00:41:21;94536.88;;;9.11;57.60
29197;BME280;62796;42.654;23.316;2022-12-07T00:43:48;94529.06;;;9.10;57.84
29197;BME280;62796;42.654;23.316;2022-12-07T00:46:15;94540.41;;;9.12;57.94
29197;BME280;62796;42.654;23.316;2022-12-07T00:48:41;94535.72;;;9.18;57.85
29197;BME280;62796;42.654;23.316;2022-12-07T00:51:07;94526.41;;;9.15;57.83
29197;BME280;62796;42.654;23.316;2022-12-07T00:53:35;94530.38;;;9.14;58.07
29197;BME280;62796;42.654;23.316;2022-12-07T00:56:07;94533.84;;;9.24;58.00
29197;BME280;62796;42.654;23.316;2022-12-07T00:58:33;94527.53;;;9.23;57.78
29197;BME280;62796;42.654;23.316;2022-12-07T01:01:03;94532.41;;;9.28;57.63
29197;BME280;62796;42.654;23.316;2022-12-07T01:03:29;94534.88;;;9.26;57.73
29197;BME280;62796;42.654;23.316;2022-12-07T01:05:56;94532.88;;;9.12;58.16
29197;BME280;62796;42.654;23.316;2022-12-07T01:08:22;94534.59;;;9.10;58.38
29197;BME280;62796;42.654;23.316;2022-12-07T01:10:48;94524.31;;;9.10;58.30
29197;BME280;62796;42.654;23.316;2022-12-07T01:13:14;94536.88;;;9.11;57.54
29197;BME280;62796;42.654;23.316;2022-12-07T01:15:44;94529.84;;;9.10;58.04
29197;BME280;62796;42.654;23.316;2022-12-07T01:18:10;94522.78;;;9.09;57.98
29197;BME280;62796;42.654;23.316;2022-12-07T01:20:36;94520.28;;;9.11;58.22
29197;BME280;62796;42.654;23.316;2022-12-07T01:23:02;94515.16;;;9.04;58.07
29197;BME280;62796;42.654;23.316;2022-12-07T01:25:28;94522.19;;;9.05;58.19
29197;BME280;62796;42.654;23.316;2022-12-07T01:27:53;94521.06;;;9.12;57.63
29197;BME280;62796;42.654;23.316;2022-12-07T01:30:18;94511.16;;;9.05;58.31
29197;BME280;62796;42.654;23.316;2022-12-07T01:32:44;94507.06;;;9.01;58.00
29197;BME280;62796;42.654;23.316;2022-12-07T01:35:09;94514.22;;;9.07;58.13
29197;BME280;62796;42.654;23.316;2022-12-07T01:37:36;94497.25;;;9.00;58.15
29197;BME280;62796;42.654;23.316;2022-12-07T01:40:03;94508.88;;;9.04;58.56
29197;BME280;62796;42.654;23.316;2022-12-07T01:42:29;94508.88;;;9.04;58.18
29197;BME280;62796;42.654;23.316;2022-12-07T01:47:50;94507.34;;;9.03;58.85
29197;BME280;62796;42.654;23.316;2022-12-07T01:50:17;94514.84;;;9.02;58.34
29197;BME280;62796;42.654;23.316;2022-12-07T01:52:43;94507.53;;;8.99;58.35
29197;BME280;62796;42.654;23.316;2022-12-07T01:55:12;94508.19;;;9.09;58.40
29197;BME280;62796;42.654;23.316;2022-12-07T01:57:41;94509.63;;;9.04;58.05
29197;BME280;62796;42.654;23.316;2022-12-07T02:00:09;94502.59;;;9.03;58.25
29197;BME280;62796;42.654;23.316;2022-12-07T02:02:45;94494.97;;;8.98;58.26
29197;BME280;62796;42.654;23.316;2022-12-07T02:05:13;94494.88;;;8.93;58.45
29197;BME280;62796;42.654;23.316;2022-12-07T02:07:39;94488.66;;;8.83;58.88
29197;BME280;62796;42.654;23.316;2022-12-07T02:12:44;94489.63;;;8.80;59.16
29197;BME280;62796;42.654;23.316;2022-12-07T02:15:12;94488.09;;;8.94;58.91
29197;BME280;62796;42.654;23.316;2022-12-07T02:17:47;94496.47;;;8.99;58.81
29197;BME280;62796;42.654;23.316;2022-12-07T02:23:31;94491.91;;;8.96;59.39
29197;BME280;62796;42.654;23.316;2022-12-07T02:31:30;94490.75;;;8.88;58.91
29197;BME280;62796;42.654;23.316;2022-12-07T02:34:10;94479.81;;;8.94;58.89
29197;BME280;62796;42.654;23.316;2022-12-07T02:36:43;94479.63;;;8.97;58.50
29197;BME280;62796;42.654;23.316;2022-12-07T02:40:29;94481.34;;;8.95;58.86
29197;BME280;62796;42.654;23.316;2022-12-07T02:42:31;94486.78;;;8.89;58.42
29197;BME280;62796;42.654;23.316;2022-12-07T02:44:58;94491.72;;;8.85;58.89
29197;BME280;62796;42.654;23.316;2022-12-07T02:47:26;94480.38;;;8.83;58.79
29197;BME280;62796;42.654;23.316;2022-12-07T02:49:53;94481.78;;;8.78;59.14
29197;BME280;62796;42.654;23.316;2022-12-07T02:52:19;94485.03;;;8.77;58.89
29197;BME280;62796;42.654;23.316;2022-12-07T02:54:44;94483.50;;;8.76;58.80
29197;BME280;62796;42.654;23.316;2022-12-07T03:00:12;94471.81;;;8.81;58.87
29197;BME280;62796;42.654;23.316;2022-12-07T03:15:54;94457.63;;;8.73;59.04
29197;BME280;62796;42.654;23.316;2022-12-07T03:18:24;94457.97;;;8.66;58.85
29197;BME280;62796;42.654;23.316;2022-12-07T03:20:53;94453.63;;;8.60;58.99
29197;BME280;62796;42.654;23.316;2022-12-07T03:23:21;94455.91;;;8.61;59.07
29197;BME280;62796;42.654;23.316;2022-12-07T03:25:55;94464.75;;;8.65;58.88
29197;BME280;62796;42.654;23.316;2022-12-07T03:28:24;94454.94;;;8.64;58.75
29197;BME280;62796;42.654;23.316;2022-12-07T03:30:59;94457.44;;;8.62;59.11
29197;BME280;62796;42.654;23.316;2022-12-07T03:33:35;94457.97;;;8.66;58.60
29197;BME280;62796;42.654;23.316;2022-12-07T03:36:14;94474.38;;;8.70;58.59
29197;BME280;62796;42.654;23.316;2022-12-07T03:38:47;94465.53;;;8.66;58.55
29197;BME280;62796;42.654;23.316;2022-12-07T03:41:26;94464.66;;;8.60;59.02
29197;BME280;62796;42.654;23.316;2022-12-07T03:43:54;94448.09;;;8.60;58.95
29197;BME280;62796;42.654;23.316;2022-12-07T03:49:04;94457.72;;;8.64;58.70
29197;BME280;62796;42.654;23.316;2022-12-07T03:51:39;94454.34;;;8.60;58.51
29197;BME280;62796;42.654;23.316;2022-12-07T03:54:13;94463.13;;;8.59;58.97
29197;BME280;62796;42.654;23.316;2022-12-07T03:56:42;94461.41;;;8.61;58.94
29197;BME280;62796;42.654;23.316;2022-12-07T03:59:11;94447.69;;;8.52;59.12
29197;BME280;62796;42.654;23.316;2022-12-07T04:01:38;94448.47;;;8.53;59.05
29197;BME280;62796;42.654;23.316;2022-12-07T04:04:03;94453.81;;;8.56;58.89
29197;BME280;62796;42.654;23.316;2022-12-07T04:06:29;94449.41;;;8.50;59.03
29197;BME280;62796;42.654;23.316;2022-12-07T04:08:54;94453.13;;;8.47;59.20
29197;BME280;62796;42.654;23.316;2022-12-07T04:11:20;94452.16;;;8.50;58.90
29197;BME280;62796;42.654;23.316;2022-12-07T04:13:45;94450.63;;;8.49;58.71
29197;BME280;62796;42.654;23.316;2022-12-07T04:16:29;94447.88;;;8.49;58.55
29197;BME280;62796;42.654;23.316;2022-12-07T04:18:55;94449.59;;;8.46;58.61
29197;BME280;62796;42.654;23.316;2022-12-07T04:21:20;94449.13;;;8.48;58.71
29197;BME280;62796;42.654;23.316;2022-12-07T04:23:45;94446.84;;;8.46;58.70
29197;BME280;62796;42.654;23.316;2022-12-07T04:26:11;94458.34;;;8.45;58.81
29197;BME280;62796;42.654;23.316;2022-12-07T04:28:36;94449.22;;;8.39;58.77
29197;BME280;62796;42.654;23.316;2022-12-07T04:31:02;94451.19;;;8.38;59.04
29197;BME280;62796;42.654;23.316;2022-12-07T04:33:27;94456.25;;;8.40;59.05
29197;BME280;62796;42.654;23.316;2022-12-07T04:35:52;94451.38;;;8.34;59.05
29197;BME280;62796;42.654;23.316;2022-12-07T04:38:18;94452.91;;;8.36;59.24
29197;BME280;62796;42.654;23.316;2022-12-07T04:40:43;94443.78;;;8.29;58.80
29197;BME280;62796;42.654;23.316;2022-12-07T04:43:09;94456.25;;;8.40;58.71
29197;BME280;62796;42.654;23.316;2022-12-07T04:45:34;94451.66;;;8.37;58.62
29197;BME280;62796;42.654;23.316;2022-12-07T04:47:59;94463.09;;;8.29;59.03
29197;BME280;62796;42.654;23.316;2022-12-07T04:50:25;94456.94;;;8.25;59.24
29197;BME280;62796;42.654;23.316;2022-12-07T04:52:50;94466.00;;;8.26;59.41
29197;BME280;62796;42.654;23.316;2022-12-07T04:55:16;94468.59;;;8.29;59.27
29197;BME280;62796;42.654;23.316;2022-12-07T04:57:41;94456.94;;;8.25;59.36
29197;BME280;62796;42.654;23.316;2022-12-07T05:00:07;94458.47;;;8.26;59.46
29197;BME280;62796;42.654;23.316;2022-12-07T05:02:33;94460.00;;;8.27;59.46
29197;BME280;62796;42.654;23.316;2022-12-07T05:04:58;94461.69;;;8.25;59.67
29197;BME280;62796;42.654;23.316;2022-12-07T05:07:24;94464.94;;;8.23;59.69
29197;BME280;62796;42.654;23.316;2022-12-07T05:09:49;94454.25;;;8.16;59.63
29197;BME280;62796;42.654;23.316;2022-12-07T05:12:14;94458.84;;;8.19;59.87
29197;BME280;62796;42.654;23.316;2022-12-07T05:14:40;94470.81;;;8.16;59.98
29197;BME280;62796;42.654;23.316;2022-12-07T05:17:05;94472.81;;;8.16;60.10
29197;BME280;62796;42.654;23.316;2022-12-07T05:19:31;94473.84;;;8.18;60.23
29197;BME280;62796;42.654;23.316;2022-12-07T05:21:56;94470.47;;;8.23;59.67
29197;BME280;62796;42.654;23.316;2022-12-07T05:24:22;94458.56;;;8.17;59.82
29197;BME280;62796;42.654;23.316;2022-12-07T05:26:47;94454.19;;;8.25;59.78
29197;BME280;62796;42.654;23.316;2022-12-07T05:29:14;94462.53;;;8.16;60.22
29197;BME280;62796;42.654;23.316;2022-12-07T05:31:40;94461.66;;;8.10;60.38
29197;BME280;62796;42.654;23.316;2022-12-07T05:34:06;94468.13;;;8.07;60.15
29197;BME280;62796;42.654;23.316;2022-12-07T05:36:31;94459.56;;;8.05;60.53
29197;BME280;62796;42.654;23.316;2022-12-07T05:38:57;94461.94;;;8.12;60.36
29197;BME280;62796;42.654;23.316;2022-12-07T05:41:23;94448.75;;;8.16;60.26
29197;BME280;62796;42.654;23.316;2022-12-07T05:44:07;94448.47;;;8.14;60.19
29197;BME280;62796;42.654;23.316;2022-12-07T05:46:33;94443.50;;;8.18;60.39
29197;BME280;62796;42.654;23.316;2022-12-07T05:48:59;94439.47;;;8.28;60.09
29197;BME280;62796;42.654;23.316;2022-12-07T05:51:24;94444.69;;;8.26;60.16
29197;BME280;62796;42.654;23.316;2022-12-07T05:53:49;94443.63;;;8.24;60.06
29197;BME280;62796;42.654;23.316;2022-12-07T05:56:15;94458.47;;;8.26;60.10
29197;BME280;62796;42.654;23.316;2022-12-07T05:58:40;94445.91;;;8.25;60.21
29197;BME280;62796;42.654;23.316;2022-12-07T06:01:25;94448.63;;;8.34;60.09
29197;BME280;62796;42.654;23.316;2022-12-07T06:03:50;94440.34;;;8.34;59.84
29197;BME280;62796;42.654;23.316;2022-12-07T06:06:16;94447.69;;;8.38;59.72
29197;BME280;62796;42.654;23.316;2022-12-07T06:08:41;94452.25;;;8.41;60.01
29197;BME280;62796;42.654;23.316;2022-12-07T06:11:07;94462.34;;;8.44;59.60
29197;BME280;62796;42.654;23.316;2022-12-07T06:13:51;94455.88;;;8.47;59.47
29197;BME280;62796;42.654;23.316;2022-12-07T06:16:16;94460.63;;;8.46;59.34
29197;BME280;62796;42.654;23.316;2022-12-07T06:18:42;94453.78;;;8.42;59.82
29197;BME280;62796;42.654;23.316;2022-12-07T06:21:07;94462.00;;;8.51;59.61
29197;BME280;62796;42.654;23.316;2022-12-07T06:23:33;94472.25;;;8.50;59.80
29197;BME280;62796;42.654;23.316;2022-12-07T06:25:58;94470.53;;;8.53;59.69
29197;BME280;62796;42.654;23.316;2022-12-07T06:28:24;94461.59;;;8.58;59.68
29197;BME280;62796;42.654;23.316;2022-12-07T06:30:57;94465.22;;;8.64;59.53
29197;BME280;62796;42.654;23.316;2022-12-07T06:33:23;94468.84;;;8.70;59.19
29197;BME280;62796;42.654;23.316;2022-12-07T06:35:48;94467.63;;;8.71;59.04
29197;BME280;62796;42.654;23.316;2022-12-07T06:38:14;94468.47;;;8.77;58.72
29197;BME280;62796;42.654;23.316;2022-12-07T06:40:39;94467.53;;;8.80;59.01
29197;BME280;62796;42.654;23.316;2022-12-07T06:43:05;94473.91;;;8.86;58.66
29197;BME280;62796;42.654;23.316;2022-12-07T06:45:30;94472.47;;;8.90;58.55
29197;BME280;62796;42.654;23.316;2022-12-07T06:47:55;94472.97;;;8.89;58.65
29197;BME280;62796;42.654;23.316;2022-12-07T06:50:21;94478.75;;;8.91;58.77
29197;BME280;62796;42.654;23.316;2022-12-07T06:52:46;94477.81;;;8.94;58.98
29197;BME280;62796;42.654;23.316;2022-12-07T06:55:12;94478.75;;;9.06;58.63
29197;BME280;62796;42.654;23.316;2022-12-07T06:57:37;94468.09;;;9.13;57.67
29197;BME280;62796;42.654;23.316;2022-12-07T07:00:03;94476.38;;;9.13;57.83
29197;BME280;62796;42.654;23.316;2022-12-07T07:02:29;94484.09;;;9.09;58.12
29197;BME280;62796;42.654;23.316;2022-12-07T07:04:54;94476.31;;;9.08;58.35
29197;BME280;62796;42.654;23.316;2022-12-07T07:07:19;94476.66;;;9.15;58.04
29197;BME280;62796;42.654;23.316;2022-12-07T07:09:45;94478.75;;;9.06;57.88
29197;BME280;62796;42.654;23.316;2022-12-07T07:12:10;94474.38;;;8.99;58.50
29197;BME280;62796;42.654;23.316;2022-12-07T07:14:36;94471.25;;;9.06;58.45
29197;BME280;62796;42.654;23.316;2022-12-07T07:17:01;94474.97;;;9.03;58.70
29197;BME280;62796;42.654;23.316;2022-12-07T07:19:27;94476.09;;;9.11;58.27
29197;BME280;62796;42.654;23.316;2022-12-07T07:21:52;94472.84;;;9.13;58.78
29197;BME280;62796;42.654;23.316;2022-12-07T07:24:18;94478.19;;;9.16;58.65
29197;BME280;62796;42.654;23.316;2022-12-07T07:26:43;94476.56;;;9.24;58.30
29197;BME280;62796;42.654;23.316;2022-12-07T07:29:08;94479.13;;;9.28;58.13
29197;BME280;62796;42.654;23.316;2022-12-07T07:31:34;94487.34;;;9.22;58.09
29197;BME280;62796;42.654;23.316;2022-12-07T07:34:01;94491.91;;;9.25;57.88
29197;BME280;62796;42.654;23.316;2022-12-07T07:36:26;94485.81;;;9.21;58.35
29197;BME280;62796;42.654;23.316;2022-12-07T07:38:51;94497.44;;;9.25;57.81
29197;BME280;62796;42.654;23.316;2022-12-07T07:41:17;94478.38;;;9.27;57.83
29197;BME280;62796;42.654;23.316;2022-12-07T07:43:43;94484.47;;;9.31;57.81
29197;BME280;62796;42.654;23.316;2022-12-07T07:46:08;94488.28;;;9.34;58.08
29197;BME280;62796;42.654;23.316;2022-12-07T07:48:34;94479.38;;;9.44;57.84
29197;BME280;62796;42.654;23.316;2022-12-07T07:50:59;94480.66;;;9.43;57.31
29197;BME280;62796;42.654;23.316;2022-12-07T07:53:25;94477.19;;;9.49;57.25
29197;BME280;62796;42.654;23.316;2022-12-07T07:55:54;94484.81;;;9.54;57.33
29197;BME280;62796;42.654;23.316;2022-12-07T07:58:20;94481.19;;;9.48;57.95
29197;BME280;62796;42.654;23.316;2022-12-07T08:00:46;94485.69;;;9.45;57.90
29197;BME280;62796;42.654;23.316;2022-12-07T08:03:11;94483.84;;;9.57;57.41
29197;BME280;62796;42.654;23.316;2022-12-07T08:05:37;94483.47;;;9.64;56.96
29197;BME280;62796;42.654;23.316;2022-12-07T08:08:02;94480.78;;;9.69;56.83
29197;BME280;62796;42.654;23.316;2022-12-07T08:10:28;94474.56;;;9.74;56.41
29197;BME280;62796;42.654;23.316;2022-12-07T08:12:53;94482.19;;;9.79;56.47
29197;BME280;62796;42.654;23.316;2022-12-07T08:15:40;94474.44;;;9.83;56.52
29197;BME280;62796;42.654;23.316;2022-12-07T08:18:06;94478.59;;;9.93;56.29
29197;BME280;62796;42.654;23.316;2022-12-07T08:20:32;94471.91;;;10.00;56.07
29197;BME280;62796;42.654;23.316;2022-12-07T08:22:58;94466.38;;;10.00;55.97
29197;BME280;62796;42.654;23.316;2022-12-07T08:25:24;94476.63;;;10.14;55.26
29197;BME280;62796;42.654;23.316;2022-12-07T08:27:50;94477.19;;;10.18;55.23
29197;BME280;62796;42.654;23.316;2022-12-07T08:30:17;94479.25;;;10.23;55.20
29197;BME280;62796;42.654;23.316;2022-12-07T08:32:44;94474.56;;;10.29;54.80
29197;BME280;62796;42.654;23.316;2022-12-07T08:35:10;94476.88;;;10.36;54.58
29197;BME280;62796;42.654;23.316;2022-12-07T08:37:35;94474.63;;;10.35;54.65
29197;BME280;62796;42.654;23.316;2022-12-07T08:40:01;94483.56;;;10.44;54.51
29197;BME280;62796;42.654;23.316;2022-12-07T08:42:27;94473.97;;;10.45;54.57
29197;BME280;62796;42.654;23.316;2022-12-07T08:44:56;94471.78;;;10.49;54.08
29197;BME280;62796;42.654;23.316;2022-12-07T08:47:23;94467.19;;;10.46;53.98
29197;BME280;62796;42.654;23.316;2022-12-07T08:49:51;94471.56;;;10.53;53.92
29197;BME280;62796;42.654;23.316;2022-12-07T08:52:17;94466.09;;;10.59;53.87
29197;BME280;62796;42.654;23.316;2022-12-07T08:54:43;94463.81;;;10.57;53.71
29197;BME280;62796;42.654;23.316;2022-12-07T08:57:10;94462.28;;;10.56;54.23
29197;BME280;62796;42.654;23.316;2022-12-07T08:59:37;94463.94;;;10.68;53.99
29197;BME280;62796;42.654;23.316;2022-12-07T09:02:04;94458.59;;;10.65;53.91
29197;BME280;62796;42.654;23.316;2022-12-07T09:04:29;94460.13;;;10.66;53.89
29197;BME280;62796;42.654;23.316;2022-12-07T09:06:55;94453.09;;;10.70;53.97
29197;BME280;62796;42.654;23.316;2022-12-07T09:09:21;94455.97;;;10.81;53.25
29197;BME280;62796;42.654;23.316;2022-12-07T09:11:46;94457.25;;;10.80;53.12
29197;BME280;62796;42.654;23.316;2022-12-07T09:14:12;94456.22;;;10.78;53.30
29197;BME280;62796;42.654;23.316;2022-12-07T09:16:39;94449.16;;;10.77;53.40
29197;BME280;62796;42.654;23.316;2022-12-07T09:19:04;94438.06;;;10.77;53.33
29197;BME280;62796;42.654;23.316;2022-12-07T09:21:30;94431.28;;;10.78;53.56
29197;BME280;62796;42.654;23.316;2022-12-07T09:23:55;94436.59;;;10.81;54.01
29197;BME280;62796;42.654;23.316;2022-12-07T09:26:21;94443.72;;;10.88;53.87
29197;BME280;62796;42.654;23.316;2022-12-07T09:28:47;94450.84;;;10.94;53.40
29197;BME280;62796;42.654;23.316;2022-12-07T09:31:12;94441.31;;;11.01;53.34
29197;BME280;62796;42.654;23.316;2022-12-07T09:33:37;94435.06;;;11.06;53.03
29197;BME280;62796;42.654;23.316;2022-12-07T09:36:03;94424.78;;;11.12;53.40
29197;BME280;62796;42.654;23.316;2022-12-07T09:38:29;94422.56;;;11.16;52.71
29197;BME280;62796;42.654;23.316;2022-12-07T09:40:56;94428.34;;;11.18;53.08
29197;BME280;62796;42.654;23.316;2022-12-07T09:43:24;94413.78;;;11.23;52.58
29197;BME280;62796;42.654;23.316;2022-12-07T09:45:52;94420.09;;;11.24;52.76
29197;BME280;62796;42.654;23.316;2022-12-07T09:48:30;94410.31;;;11.28;52.46
29197;BME280;62796;42.654;23.316;2022-12-07T09:50:58;94407.78;;;11.30;52.34
29197;BME280;62796;42.654;23.316;2022-12-07T09:53:33;94404.28;;;11.35;52.59
29197;BME280;62796;42.654;23.316;2022-12-07T09:56:00;94412.16;;;11.42;52.38
29197;BME280;62796;42.654;23.316;2022-12-07T09:58:28;94404.88;;;11.45;52.12
29197;BME280;62796;42.654;23.316;2022-12-07T10:00:57;94399.34;;;11.50;51.90
29197;BME280;62796;42.654;23.316;2022-12-07T10:03:28;94398.59;;;11.50;51.64
29197;BME280;62796;42.654;23.316;2022-12-07T10:05:54;94397.13;;;11.54;51.46
29197;BME280;62796;42.654;23.316;2022-12-07T10:08:20;94396.13;;;11.57;51.33
29197;BME280;62796;42.654;23.316;2022-12-07T10:10:51;94383.88;;;11.70;51.01
29197;BME280;62796;42.654;23.316;2022-12-07T10:13:22;94385.84;;;11.69;51.60
29197;BME280;62796;42.654;23.316;2022-12-07T10:15:58;94379.38;;;11.78;51.62
29197;BME280;62796;42.654;23.316;2022-12-07T10:18:37;94388.00;;;11.91;51.32
29197;BME280;62796;42.654;23.316;2022-12-07T10:21:10;94390.06;;;12.01;50.42
29197;BME280;62796;42.654;23.316;2022-12-07T10:23:38;94375.50;;;12.12;49.93
29197;BME280;62796;42.654;23.316;2022-12-07T10:26:27;94367.66;;;12.10;50.19
29197;BME280;62796;42.654;23.316;2022-12-07T10:28:55;94367.41;;;12.14;50.40
29197;BME280;62796;42.654;23.316;2022-12-07T10:31:23;94360.88;;;12.23;50.66
29197;BME280;62796;42.654;23.316;2022-12-07T10:36:19;94350.78;;;12.25;49.90
29197;BME280;62796;42.654;23.316;2022-12-07T10:38:52;94355.09;;;12.32;50.08
29197;BME280;62796;42.654;23.316;2022-12-07T10:41:18;94347.78;;;12.34;49.29
29197;BME280;62796;42.654;23.316;2022-12-07T10:43:55;94344.22;;;12.34;49.24
29197;BME280;62796;42.654;23.316;2022-12-07T10:51:31;94329.63;;;12.33;49.48
29197;BME280;62796;42.654;23.316;2022-12-07T10:54:10;94327.59;;;12.39;49.70
29197;BME280;62796;42.654;23.316;2022-12-07T11:05:20;94313.75;;;12.95;49.27
29197;BME280;62796;42.654;23.316;2022-12-07T11:13:29;94316.53;;;14.54;44.84
29197;BME280;62796;42.654;23.316;2022-12-07T11:23:49;94309.28;;;16.08;40.27
29197;BME280;62796;42.654;23.316;2022-12-07T11:37:34;94269.88;;;17.70;36.74
29197;BME280;62796;42.654;23.316;2022-12-07T11:40:36;94271.72;;;18.54;35.00
29197;BME280;62796;42.654;23.316;2022-12-07T11:46:12;94266.41;;;19.67;32.53
29197;BME280;62796;42.654;23.316;2022-12-07T11:48:47;94268.44;;;19.95;31.85
29197;BME280;62796;42.654;23.316;2022-12-07T11:51:18;94268.56;;;20.17;31.61
29197;BME280;62796;42.654;23.316;2022-12-07T11:53:53;94258.47;;;20.22;30.51
29197;BME280;62796;42.654;23.316;2022-12-07T11:56:24;94256.31;;;20.35;30.76
29197;BME280;62796;42.654;23.316;2022-12-07T11:59:01;94252.13;;;20.72;30.52
29197;BME280;62796;42.654;23.316;2022-12-07T12:06:43;94230.00;;;21.82;28.43
29197;BME280;62796;42.654;23.316;2022-12-07T12:09:19;94243.94;;;22.43;27.59
29197;BME280;62796;42.654;23.316;2022-12-07T12:14:38;94240.88;;;22.96;26.71
29197;BME280;62796;42.654;23.316;2022-12-07T12:22:42;94229.34;;;24.44;24.31
29197;BME280;62796;42.654;23.316;2022-12-07T12:25:25;94227.72;;;24.85;23.94
29197;BME280;62796;42.654;23.316;2022-12-07T12:27:52;94219.69;;;24.91;23.12
29197;BME280;62796;42.654;23.316;2022-12-07T12:32:51;94217.31;;;24.70;23.85
29197;BME280;62796;42.654;23.316;2022-12-07T12:37:53;94203.56;;;24.06;24.05
29197;BME280;62796;42.654;23.316;2022-12-07T12:42:57;94203.09;;;23.41;24.87
29197;BME280;62796;42.654;23.316;2022-12-07T12:45:31;94195.13;;;23.47;24.74
29197;BME280;62796;42.654;23.316;2022-12-07T12:48:26;94196.22;;;23.68;24.62
29197;BME280;62796;42.654;23.316;2022-12-07T12:54:03;94201.22;;;24.46;23.68
29197;BME280;62796;42.654;23.316;2022-12-07T12:59:30;94205.19;;;24.60;23.09
29197;BME280;62796;42.654;23.316;2022-12-07T13:04:53;94198.59;;;24.14;23.54
29197;BME280;62796;42.654;23.316;2022-12-07T13:13:00;94200.69;;;24.57;23.24
29197;BME280;62796;42.654;23.316;2022-12-07T13:20:49;94200.00;;;24.84;22.74
29197;BME280;62796;42.654;23.316;2022-12-07T13:23:18;94198.41;;;25.36;22.30
29197;BME280;62796;42.654;23.316;2022-12-07T13:25:59;94191.41;;;25.73;21.80
29197;BME280;62796;42.654;23.316;2022-12-07T13:28:35;94198.69;;;25.67;21.45
29197;BME280;62796;42.654;23.316;2022-12-07T13:31:13;94200.06;;;25.75;21.55
29197;BME280;62796;42.654;23.316;2022-12-07T13:33:39;94196.84;;;26.27;20.91
29197;BME280;62796;42.654;23.316;2022-12-07T13:36:17;94184.44;;;26.22;20.55
29197;BME280;62796;42.654;23.316;2022-12-07T13:38:55;94192.22;;;26.22;20.72
29197;BME280;62796;42.654;23.316;2022-12-07T13:41:26;94173.66;;;25.82;21.00
29197;BME280;62796;42.654;23.316;2022-12-07T13:44:05;94174.28;;;24.99;22.33
29197;BME280;62796;42.654;23.316;2022-12-07T13:46:59;94178.63;;;24.12;23.48
29197;BME280;62796;42.654;23.316;2022-12-07T13:49:31;94178.66;;;23.28;24.54
29197;BME280;62796;42.654;23.316;2022-12-07T13:52:19;94174.25;;;22.60;25.59
29197;BME280;62796;42.654;23.316;2022-12-07T13:55:13;94162.16;;;21.88;26.61
29197;BME280;62796;42.654;23.316;2022-12-07T13:57:40;94159.81;;;21.31;27.57
29197;BME280;62796;42.654;23.316;2022-12-07T14:00:15;94159.41;;;20.82;28.38
29197;BME280;62796;42.654;23.316;2022-12-07T14:03:02;94166.13;;;20.33;29.38
29197;BME280;62796;42.654;23.316;2022-12-07T14:05:30;94179.09;;;20.01;29.91
29197;BME280;62796;42.654;23.316;2022-12-07T14:12:58;94174.72;;;18.79;32.43
29197;BME280;62796;42.654;23.316;2022-12-07T14:15:28;94177.25;;;18.49;33.48
29197;BME280;62796;42.654;23.316;2022-12-07T14:17:56;94186.16;;;18.27;33.88
29197;BME280;62796;42.654;23.316;2022-12-07T14:22:55;94183.47;;;17.74;34.36
29197;BME280;62796;42.654;23.316;2022-12-07T14:25:23;94186.69;;;17.39;35.18
29197;BME280;62796;42.654;23.316;2022-12-07T14:27:50;94191.31;;;17.10;35.84
29197;BME280;62796;42.654;23.316;2022-12-07T14:30:17;94190.06;;;16.79;36.43
29197;BME280;62796;42.654;23.316;2022-12-07T14:32:44;94190.16;;;16.61;37.41
29197;BME280;62796;42.654;23.316;2022-12-07T14:35:15;94187.88;;;16.40;37.68
29197;BME280;62796;42.654;23.316;2022-12-07T14:37:43;94173.66;;;16.25;38.39
29197;BME280;62796;42.654;23.316;2022-12-07T14:40:17;94182.66;;;15.99;39.32
29197;BME280;62796;42.654;23.316;2022-12-07T14:42:44;94182.97;;;15.77;39.65
29197;BME280;62796;42.654;23.316;2022-12-07T14:45:17;94186.28;;;15.57;39.93
29197;BME280;62796;42.654;23.316;2022-12-07T14:47:44;94185.16;;;15.41;40.80
29197;BME280;62796;42.654;23.316;2022-12-07T14:50:14;94183.03;;;15.29;41.15
29197;BME280;62796;42.654;23.316;2022-12-07T14:52:42;94182.72;;;15.14;41.39
29197;BME280;62796;42.654;23.316;2022-12-07T14:55:28;94186.88;;;15.02;41.93
29197;BME280;62796;42.654;23.316;2022-12-07T14:57:54;94184.25;;;14.85;42.10
29197;BME280;62796;42.654;23.316;2022-12-07T15:00:22;94190.47;;;14.72;42.58
29197;BME280;62796;42.654;23.316;2022-12-07T15:02:48;94192.31;;;14.64;42.80
29197;BME280;62796;42.654;23.316;2022-12-07T15:05:14;94184.84;;;14.48;42.95
29197;BME280;62796;42.654;23.316;2022-12-07T15:07:40;94196.78;;;14.43;43.63
29197;BME280;62796;42.654;23.316;2022-12-07T15:10:21;94206.75;;;14.33;43.78